sensor_id;sensor_type;location;lat;lon;timestamp;pressure;altitude;pressure_sealevel;temperature;humidity
62712;BME280;48772;55.586;37.730;2024-03-22T00:00:17;99650.84;;;1.59;100.00
62712;BME280;48772;55.586;37.730;2024-03-22T00:02:43;99684.75;;;1.65;100.00
62712;BME280;48772;55.586;37.730;2024-03-22T00:05:09;99684.06;;;1.61;100.00
62712;BME280;48772;55.586;37.730;2024-03-22T00:07:35;99678.53;;;1.47;100.00
62712;BME280;48772;55.586;37.730;2024-03-22T00:10:02;99658.25;;;1.31;100.00
62712;BME280;48772;55.586;37.730;2024-03-22T00:12:29;99661.53;;;1.36;100.00
62712;BME280;48772;55.586;37.730;2024-03-22T00:14:54;99687.81;;;1.56;100.00
62712;BME280;48772;55.586;37.730;2024-03-22T00:17:21;99686.13;;;1.53;100.00
62712;BME280;48772;55.586;37.730;2024-03-22T00:19:47;99679.44;;;1.46;100.00
62712;BME280;48772;55.586;37.730;2024-03-22T00:22:12;99690.56;;;1.53;100.00
62712;BME280;48772;55.586;37.730;2024-03-22T00:24:38;99684.78;;;1.45;100.00
62712;BME280;48772;55.586;37.730;2024-03-22T00:27:04;99676.28;;;1.38;100.00
62712;BME280;48772;55.586;37.730;2024-03-22T00:29:30;99685.69;;;1.44;100.00
62712;BME280;48772;55.586;37.730;2024-03-22T00:31:56;99640.53;;;1.16;100.00
62712;BME280;48772;55.586;37.730;2024-03-22T00:34:22;99680.91;;;1.33;100.00
62712;BME280;48772;55.586;37.730;2024-03-22T00:36:48;99643.41;;;1.10;100.00
62712;BME280;48772;55.586;37.730;2024-03-22T00:39:14;99635.38;;;0.93;100.00
62712;BME280;48772;55.586;37.730;2024-03-22T00:41:40;99684.28;;;1.15;100.00
62712;BME280;48772;55.586;37.730;2024-03-22T00:44:06;99676.00;;;1.04;100.00
62712;BME280;48772;55.586;37.730;2024-03-22T00:46:31;99672.72;;;0.99;100.00
62712;BME280;48772;55.586;37.730;2024-03-22T00:48:57;99684.66;;;1.06;100.00
62712;BME280;48772;55.586;37.730;2024-03-22T00:51:25;99680.41;;;1.04;100.00
62712;BME280;48772;55.586;37.730;2024-03-22T00:53:51;99683.09;;;1.02;100.00
62712;BME280;48772;55.586;37.730;2024-03-22T00:56:17;99689.91;;;1.06;100.00
62712;BME280;48772;55.586;37.730;2024-03-22T00:58:42;99677.13;;;0.99;100.00
62712;BME280;48772;55.586;37.730;2024-03-22T01:01:08;99689.19;;;1.03;100.00
62712;BME280;48772;55.586;37.730;2024-03-22T01:03:34;99682.38;;;0.99;100.00
62712;BME280;48772;55.586;37.730;2024-03-22T01:06:00;99679.09;;;0.94;100.00
62712;BME280;48772;55.586;37.730;2024-03-22T01:08:26;99676.66;;;0.89;100.00
62712;BME280;48772;55.586;37.730;2024-03-22T01:10:52;99671.41;;;0.89;100.00
62712;BME280;48772;55.586;37.730;2024-03-22T01:13:21;99649.19;;;0.76;100.00
62712;BME280;48772;55.586;37.730;2024-03-22T01:15:46;99669.53;;;0.91;100.00
62712;BME280;48772;55.586;37.730;2024-03-22T01:18:12;99671.41;;;0.89;100.00
62712;BME280;48772;55.586;37.730;2024-03-22T01:20:38;99673.97;;;0.91;100.00
62712;BME280;48772;55.586;37.730;2024-03-22T01:23:04;99642.28;;;0.74;100.00
62712;BME280;48772;55.586;37.730;2024-03-22T01:25:30;99677.63;;;0.87;100.00
62712;BME280;48772;55.586;37.730;2024-03-22T01:27:56;99647.38;;;0.78;100.00
62712;BME280;48772;55.586;37.730;2024-03-22T01:30:22;99650.91;;;0.77;100.00
62712;BME280;48772;55.586;37.730;2024-03-22T01:32:48;99654.50;;;0.75;100.00
62712;BME280;48772;55.586;37.730;2024-03-22T01:35:14;99675.31;;;0.79;100.00
62712;BME280;48772;55.586;37.730;2024-03-22T01:37:40;99665.13;;;0.72;100.00
62712;BME280;48772;55.586;37.730;2024-03-22T01:40:08;99661.88;;;0.65;100.00
62712;BME280;48772;55.586;37.730;2024-03-22T01:42:34;99629.19;;;0.52;100.00
62712;BME280;48772;55.586;37.730;2024-03-22T01:44:59;99659.25;;;0.65;100.00
62712;BME280;48772;55.586;37.730;2024-03-22T01:47:25;99622.84;;;0.36;100.00
62712;BME280;48772;55.586;37.730;2024-03-22T01:49:55;99626.16;;;0.41;100.00
62712;BME280;48772;55.586;37.730;2024-03-22T01:52:21;99626.16;;;0.41;100.00
62712;BME280;48772;55.586;37.730;2024-03-22T01:54:47;99633.09;;;0.42;100.00
62712;BME280;48772;55.586;37.730;2024-03-22T01:57:14;99608.69;;;0.19;100.00
62712;BME280;48772;55.586;37.730;2024-03-22T01:59:40;99632.63;;;0.33;100.00
62712;BME280;48772;55.586;37.730;2024-03-22T02:02:06;99615.69;;;0.18;100.00
62712;BME280;48772;55.586;37.730;2024-03-22T02:04:35;99621.63;;;0.23;100.00
62712;BME280;48772;55.586;37.730;2024-03-22T02:07:01;99591.66;;;0.07;100.00
62712;BME280;48772;55.586;37.730;2024-03-22T02:09:27;99621.09;;;0.15;100.00
62712;BME280;48772;55.586;37.730;2024-03-22T02:11:52;99615.09;;;0.12;100.00
62712;BME280;48772;55.586;37.730;2024-03-22T02:14:18;99611.38;;;0.17;100.00
62712;BME280;48772;55.586;37.730;2024-03-22T02:16:44;99588.16;;;0.08;100.00
62712;BME280;48772;55.586;37.730;2024-03-22T02:19:11;99603.50;;;0.17;100.00
62712;BME280;48772;55.586;37.730;2024-03-22T02:21:36;99591.75;;;0.06;100.00
62712;BME280;48772;55.586;37.730;2024-03-22T02:24:02;99621.63;;;0.23;100.00
62712;BME280;48772;55.586;37.730;2024-03-22T02:26:28;99621.53;;;0.26;100.00
62712;BME280;48772;55.586;37.730;2024-03-22T02:28:54;99612.19;;;0.19;100.00
62712;BME280;48772;55.586;37.730;2024-03-22T02:31:20;99601.16;;;0.11;100.00
62712;BME280;48772;55.586;37.730;2024-03-22T02:33:46;99608.38;;;0.04;100.00
62712;BME280;48772;55.586;37.730;2024-03-22T02:36:12;99571.72;;;-0.19;100.00
62712;BME280;48772;55.586;37.730;2024-03-22T02:38:38;99608.44;;;0.03;100.00
62712;BME280;48772;55.586;37.730;2024-03-22T02:41:03;99571.72;;;-0.19;100.00
62712;BME280;48772;55.586;37.730;2024-03-22T02:43:29;99597.34;;;-0.04;100.00
62712;BME280;48772;55.586;37.730;2024-03-22T02:45:55;99573.44;;;-0.18;100.00
62712;BME280;48772;55.586;37.730;2024-03-22T02:48:21;99578.44;;;-0.12;100.00
62712;BME280;48772;55.586;37.730;2024-03-22T02:50:47;99594.78;;;-0.05;100.00
62712;BME280;48772;55.586;37.730;2024-03-22T02:53:13;99597.34;;;-0.04;100.00
62712;BME280;48772;55.586;37.730;2024-03-22T02:55:40;99600.78;;;-0.02;100.00
62712;BME280;48772;55.586;37.730;2024-03-22T02:58:07;99603.34;;;0.00;100.00
62712;BME280;48772;55.586;37.730;2024-03-22T03:00:37;99586.75;;;-0.01;100.00
62712;BME280;48772;55.586;37.730;2024-03-22T03:03:06;99571.72;;;-0.19;100.00
62712;BME280;48772;55.586;37.730;2024-03-22T03:05:33;99584.25;;;-0.04;100.00
62712;BME280;48772;55.586;37.730;2024-03-22T03:08:01;99578.50;;;-0.13;100.00
62712;BME280;48772;55.586;37.730;2024-03-22T03:10:27;99577.59;;;-0.12;100.00
62712;BME280;48772;55.586;37.730;2024-03-22T03:12:54;99567.22;;;-0.15;100.00
62712;BME280;48772;55.586;37.730;2024-03-22T03:15:21;99591.44;;;-0.09;100.00
62712;BME280;48772;55.586;37.730;2024-03-22T03:17:47;99568.50;;;-0.25;100.00
62712;BME280;48772;55.586;37.730;2024-03-22T03:20:14;99564.28;;;-0.29;100.00
62712;BME280;48772;55.586;37.730;2024-03-22T03:22:41;99572.06;;;-0.28;100.00
62712;BME280;48772;55.586;37.730;2024-03-22T03:25:07;99567.03;;;-0.32;100.00
62712;BME280;48772;55.586;37.730;2024-03-22T03:27:34;99561.09;;;-0.37;100.00
62712;BME280;48772;55.586;37.730;2024-03-22T03:30:01;99585.25;;;-0.29;100.00
62712;BME280;48772;55.586;37.730;2024-03-22T03:32:30;99553.47;;;-0.43;100.00
62712;BME280;48772;55.586;37.730;2024-03-22T03:34:56;99572.38;;;-0.35;100.00
62712;BME280;48772;55.586;37.730;2024-03-22T03:37:22;99570.53;;;-0.33;100.00
62712;BME280;48772;55.586;37.730;2024-03-22T03:39:48;99575.72;;;-0.32;100.00
62712;BME280;48772;55.586;37.730;2024-03-22T03:42:14;99536.44;;;-0.55;100.00
62712;BME280;48772;55.586;37.730;2024-03-22T03:44:40;99566.56;;;-0.43;100.00
62712;BME280;48772;55.586;37.730;2024-03-22T03:47:07;99560.19;;;-0.36;100.00
62712;BME280;48772;55.586;37.730;2024-03-22T03:49:34;99569.44;;;-0.28;100.00
62712;BME280;48772;55.586;37.730;2024-03-22T03:51:59;99553.38;;;-0.40;100.00
62712;BME280;48772;55.586;37.730;2024-03-22T03:54:25;99556.44;;;-0.29;100.00
62712;BME280;48772;55.586;37.730;2024-03-22T03:56:51;99524.78;;;-0.46;100.00
62712;BME280;48772;55.586;37.730;2024-03-22T03:59:17;99563.69;;;-0.14;100.00
62712;BME280;48772;55.586;37.730;2024-03-22T04:01:43;99561.75;;;-0.09;100.00
62712;BME280;48772;55.586;37.730;2024-03-22T04:04:09;99553.06;;;-0.11;100.00
62712;BME280;48772;55.586;37.730;2024-03-22T04:06:35;99556.16;;;0.00;100.00
62712;BME280;48772;55.586;37.730;2024-03-22T04:09:01;99569.69;;;0.11;100.00
62712;BME280;48772;55.586;37.730;2024-03-22T04:11:28;99559.72;;;-0.03;100.00
62712;BME280;48772;55.586;37.730;2024-03-22T04:13:54;99549.06;;;0.02;100.00
62712;BME280;48772;55.586;37.730;2024-03-22T04:16:20;99559.53;;;0.24;100.00
62712;BME280;48772;55.586;37.730;2024-03-22T04:18:46;99559.75;;;0.19;100.00
62712;BME280;48772;55.586;37.730;2024-03-22T04:21:12;99547.53;;;0.18;100.00
62712;BME280;48772;55.586;37.730;2024-03-22T04:23:38;99557.56;;;0.30;100.00
62712;BME280;48772;55.586;37.730;2024-03-22T04:26:04;99538.56;;;0.24;100.00
62712;BME280;48772;55.586;37.730;2024-03-22T04:28:30;99545.16;;;0.34;100.00
62712;BME280;48772;55.586;37.730;2024-03-22T04:33:27;99543.56;;;0.30;100.00
62712;BME280;48772;55.586;37.730;2024-03-22T04:35:54;99510.41;;;0.29;100.00
62712;BME280;48772;55.586;37.730;2024-03-22T04:38:20;99547.78;;;0.75;100.00
62712;BME280;48772;55.586;37.730;2024-03-22T04:40:46;99528.22;;;0.82;100.00
62712;BME280;48772;55.586;37.730;2024-03-22T04:43:12;99489.97;;;0.77;100.00
62712;BME280;48772;55.586;37.730;2024-03-22T04:45:38;99527.31;;;1.03;100.00
62712;BME280;48772;55.586;37.730;2024-03-22T04:48:04;99541.06;;;1.28;100.00
62712;BME280;48772;55.586;37.730;2024-03-22T04:50:31;99525.13;;;1.13;100.00
62712;BME280;48772;55.586;37.730;2024-03-22T04:52:57;99513.94;;;1.08;100.00
62712;BME280;48772;55.586;37.730;2024-03-22T04:55:23;99557.34;;;1.73;100.00
62712;BME280;48772;55.586;37.730;2024-03-22T04:57:51;99523.66;;;2.00;100.00
62712;BME280;48772;55.586;37.730;2024-03-22T05:00:17;99540.22;;;2.54;100.00
62712;BME280;48772;55.586;37.730;2024-03-22T05:02:43;99534.50;;;2.46;100.00
62712;BME280;48772;55.586;37.730;2024-03-22T05:05:09;99540.53;;;2.31;100.00
62712;BME280;48772;55.586;37.730;2024-03-22T05:07:35;99511.41;;;2.17;100.00
62712;BME280;48772;55.586;37.730;2024-03-22T05:10:02;99528.91;;;2.52;100.00
62712;BME280;48772;55.586;37.730;2024-03-22T05:12:31;99533.94;;;3.08;100.00
62712;BME280;48772;55.586;37.730;2024-03-22T05:14:57;99530.63;;;3.37;100.00
62712;BME280;48772;55.586;37.730;2024-03-22T05:17:23;99550.41;;;3.28;100.00
62712;BME280;48772;55.586;37.730;2024-03-22T05:19:49;99545.22;;;3.75;100.00
62712;BME280;48772;55.586;37.730;2024-03-22T05:22:15;99530.78;;;3.98;100.00
62712;BME280;48772;55.586;37.730;2024-03-22T05:24:41;99501.59;;;4.16;100.00
62712;BME280;48772;55.586;37.730;2024-03-22T05:27:07;99502.59;;;4.29;100.00
62712;BME280;48772;55.586;37.730;2024-03-22T05:29:33;99508.31;;;4.67;100.00
62712;BME280;48772;55.586;37.730;2024-03-22T05:31:59;99500.69;;;4.76;100.00
62712;BME280;48772;55.586;37.730;2024-03-22T05:34:26;99520.16;;;4.89;100.00
62712;BME280;48772;55.586;37.730;2024-03-22T05:36:52;99513.13;;;5.32;100.00
62712;BME280;48772;55.586;37.730;2024-03-22T05:39:17;99520.31;;;5.58;100.00
62712;BME280;48772;55.586;37.730;2024-03-22T05:41:43;99500.22;;;5.41;100.00
62712;BME280;48772;55.586;37.730;2024-03-22T05:44:09;99522.38;;;5.53;100.00
62712;BME280;48772;55.586;37.730;2024-03-22T05:46:35;99498.50;;;5.26;100.00
62712;BME280;48772;55.586;37.730;2024-03-22T05:49:01;99499.88;;;5.60;100.00
62712;BME280;48772;55.586;37.730;2024-03-22T05:51:27;99503.78;;;5.82;100.00
62712;BME280;48772;55.586;37.730;2024-03-22T05:53:53;99500.44;;;5.93;100.00
62712;BME280;48772;55.586;37.730;2024-03-22T05:56:19;99489.63;;;6.10;100.00
62712;BME280;48772;55.586;37.730;2024-03-22T05:58:45;99481.56;;;6.25;100.00
62712;BME280;48772;55.586;37.730;2024-03-22T06:01:11;99501.47;;;6.70;100.00
62712;BME280;48772;55.586;37.730;2024-03-22T06:03:37;99482.66;;;6.87;99.66
62712;BME280;48772;55.586;37.730;2024-03-22T06:06:03;99499.75;;;6.96;97.83
62712;BME280;48772;55.586;37.730;2024-03-22T06:08:29;99491.25;;;6.78;97.85
62712;BME280;48772;55.586;37.730;2024-03-22T06:10:57;99492.53;;;7.23;96.75
62712;BME280;48772;55.586;37.730;2024-03-22T06:13:23;99473.03;;;7.24;95.09
62712;BME280;48772;55.586;37.730;2024-03-22T06:15:49;99478.09;;;7.39;94.36
62712;BME280;48772;55.586;37.730;2024-03-22T06:18:15;99459.59;;;7.63;92.45
62712;BME280;48772;55.586;37.730;2024-03-22T06:20:42;99469.81;;;7.44;92.31
62712;BME280;48772;55.586;37.730;2024-03-22T06:23:08;99469.81;;;7.56;92.26
62712;BME280;48772;55.586;37.730;2024-03-22T06:25:34;99454.59;;;7.71;91.08
62712;BME280;48772;55.586;37.730;2024-03-22T06:28:00;99464.81;;;8.00;90.01
62712;BME280;48772;55.586;37.730;2024-03-22T06:30:26;99470.19;;;8.47;87.84
62712;BME280;48772;55.586;37.730;2024-03-22T06:32:53;99457.84;;;8.46;87.21
62712;BME280;48772;55.586;37.730;2024-03-22T06:35:21;99461.50;;;8.56;86.78
62712;BME280;48772;55.586;37.730;2024-03-22T06:37:48;99466.16;;;9.11;84.61
62712;BME280;48772;55.586;37.730;2024-03-22T06:40:15;99469.91;;;9.19;83.62
62712;BME280;48772;55.586;37.730;2024-03-22T06:42:41;99470.66;;;9.54;81.68
62712;BME280;48772;55.586;37.730;2024-03-22T06:45:07;99425.28;;;9.56;80.42
62712;BME280;48772;55.586;37.730;2024-03-22T06:47:33;99445.09;;;9.74;78.97
62712;BME280;48772;55.586;37.730;2024-03-22T06:49:59;99456.06;;;10.02;78.36
62712;BME280;48772;55.586;37.730;2024-03-22T06:52:25;99427.75;;;10.13;76.61
62712;BME280;48772;55.586;37.730;2024-03-22T06:54:51;99432.19;;;10.23;75.42
62712;BME280;48772;55.586;37.730;2024-03-22T06:57:18;99455.31;;;10.34;74.08
62712;BME280;48772;55.586;37.730;2024-03-22T06:59:44;99465.22;;;10.32;73.19
62712;BME280;48772;55.586;37.730;2024-03-22T07:02:10;99460.31;;;10.59;72.78
62712;BME280;48772;55.586;37.730;2024-03-22T07:04:36;99422.91;;;10.38;71.39
62712;BME280;48772;55.586;37.730;2024-03-22T07:07:02;99439.97;;;10.47;71.94
62712;BME280;48772;55.586;37.730;2024-03-22T07:09:28;99462.69;;;11.14;70.11
62712;BME280;48772;55.586;37.730;2024-03-22T07:11:55;99462.53;;;10.95;69.73
62712;BME280;48772;55.586;37.730;2024-03-22T07:14:22;99441.94;;;11.27;68.83
62712;BME280;48772;55.586;37.730;2024-03-22T07:16:52;99455.38;;;11.16;68.21
62712;BME280;48772;55.586;37.730;2024-03-22T07:19:21;99449.91;;;11.47;67.32
62712;BME280;48772;55.586;37.730;2024-03-22T07:21:48;99447.38;;;11.46;67.16
62712;BME280;48772;55.586;37.730;2024-03-22T07:24:14;99412.13;;;11.82;65.25
62712;BME280;48772;55.586;37.730;2024-03-22T07:26:40;99428.78;;;11.95;64.40
62712;BME280;48772;55.586;37.730;2024-03-22T07:29:06;99413.28;;;11.89;63.66
62712;BME280;48772;55.586;37.730;2024-03-22T07:31:32;99414.16;;;11.99;62.77
62712;BME280;48772;55.586;37.730;2024-03-22T07:33:58;99430.44;;;11.96;63.00
62712;BME280;48772;55.586;37.730;2024-03-22T07:36:23;99411.66;;;12.35;61.96
62712;BME280;48772;55.586;37.730;2024-03-22T07:38:49;99424.19;;;12.73;60.48
62712;BME280;48772;55.586;37.730;2024-03-22T07:41:15;99404.88;;;12.88;59.47
62712;BME280;48772;55.586;37.730;2024-03-22T07:43:41;99404.16;;;13.15;58.39
62712;BME280;48772;55.586;37.730;2024-03-22T07:46:07;99396.53;;;13.47;56.20
62712;BME280;48772;55.586;37.730;2024-03-22T07:48:33;99402.72;;;13.57;55.40
62712;BME280;48772;55.586;37.730;2024-03-22T07:50:59;99397.34;;;13.84;54.65
62712;BME280;48772;55.586;37.730;2024-03-22T07:53:25;99365.41;;;13.73;53.48
62712;BME280;48772;55.586;37.730;2024-03-22T07:55:51;99383.75;;;14.22;51.49
62712;BME280;48772;55.586;37.730;2024-03-22T07:58:17;99384.13;;;14.62;50.23
62712;BME280;48772;55.586;37.730;2024-03-22T08:00:43;99357.47;;;14.43;48.89
62712;BME280;48772;55.586;37.730;2024-03-22T08:03:14;99384.94;;;15.06;47.69
62712;BME280;48772;55.586;37.730;2024-03-22T08:05:41;99374.69;;;14.58;47.20
62712;BME280;48772;55.586;37.730;2024-03-22T08:08:07;99350.41;;;14.60;46.43
62712;BME280;48772;55.586;37.730;2024-03-22T08:10:33;99368.44;;;14.93;45.61
62712;BME280;48772;55.586;37.730;2024-03-22T08:12:59;99376.09;;;14.88;44.53
62712;BME280;48772;55.586;37.730;2024-03-22T08:15:26;99350.25;;;14.87;42.70
62712;BME280;48772;55.586;37.730;2024-03-22T08:17:53;99355.94;;;15.09;42.97
62712;BME280;48772;55.586;37.730;2024-03-22T08:20:19;99329.97;;;15.43;42.01
62712;BME280;48772;55.586;37.730;2024-03-22T08:22:45;99347.03;;;15.76;41.65
62712;BME280;48772;55.586;37.730;2024-03-22T08:25:11;99343.47;;;15.59;41.82
62712;BME280;48772;55.586;37.730;2024-03-22T08:27:38;99335.09;;;15.70;41.04
62712;BME280;48772;55.586;37.730;2024-03-22T08:30:04;99334.50;;;15.51;40.58
62712;BME280;48772;55.586;37.730;2024-03-22T08:32:32;99332.00;;;15.49;39.82
62712;BME280;48772;55.586;37.730;2024-03-22T08:34:58;99339.34;;;15.39;38.79
62712;BME280;48772;55.586;37.730;2024-03-22T08:37:24;99326.16;;;15.28;39.00
62712;BME280;48772;55.586;37.730;2024-03-22T08:39:50;99318.56;;;15.49;38.41
62712;BME280;48772;55.586;37.730;2024-03-22T08:42:15;99301.41;;;15.42;38.30
62712;BME280;48772;55.586;37.730;2024-03-22T08:44:41;99311.00;;;15.19;38.50
62712;BME280;48772;55.586;37.730;2024-03-22T08:47:08;99316.25;;;14.95;38.33
62712;BME280;48772;55.586;37.730;2024-03-22T08:49:34;99314.38;;;15.21;38.20
62712;BME280;48772;55.586;37.730;2024-03-22T08:52:02;99306.72;;;14.75;38.89
62712;BME280;48772;55.586;37.730;2024-03-22T08:54:28;99317.22;;;14.94;38.42
62712;BME280;48772;55.586;37.730;2024-03-22T08:56:54;99315.19;;;14.88;38.18
62712;BME280;48772;55.586;37.730;2024-03-22T08:59:19;99311.53;;;14.97;37.92
62712;BME280;48772;55.586;37.730;2024-03-22T09:01:45;99267.75;;;14.97;37.29
62712;BME280;48772;55.586;37.730;2024-03-22T09:04:14;99275.72;;;15.14;37.06
62712;BME280;48772;55.586;37.730;2024-03-22T09:06:41;99278.88;;;15.35;37.11
62712;BME280;48772;55.586;37.730;2024-03-22T09:09:07;99228.91;;;15.66;37.00
62712;BME280;48772;55.586;37.730;2024-03-22T09:11:34;99290.69;;;16.32;35.58
62712;BME280;48772;55.586;37.730;2024-03-22T09:13:59;99275.22;;;16.66;35.28
62712;BME280;48772;55.586;37.730;2024-03-22T09:16:25;99267.47;;;16.15;35.50
62712;BME280;48772;55.586;37.730;2024-03-22T09:18:51;99250.28;;;16.24;34.84
62712;BME280;48772;55.586;37.730;2024-03-22T09:21:17;99241.69;;;16.77;34.40
62712;BME280;48772;55.586;37.730;2024-03-22T09:23:43;99271.16;;;16.46;33.74
62712;BME280;48772;55.586;37.730;2024-03-22T09:26:09;99256.53;;;16.16;33.74
62712;BME280;48772;55.586;37.730;2024-03-22T09:28:35;99259.75;;;16.52;32.91
62712;BME280;48772;55.586;37.730;2024-03-22T09:31:05;99258.88;;;16.68;33.06
62712;BME280;48772;55.586;37.730;2024-03-22T09:33:35;99251.19;;;17.11;32.17
62712;BME280;48772;55.586;37.730;2024-03-22T09:36:02;99264.47;;;17.13;31.97
62712;BME280;48772;55.586;37.730;2024-03-22T09:38:28;99254.34;;;16.52;32.60
62712;BME280;48772;55.586;37.730;2024-03-22T09:40:55;99260.50;;;17.01;31.62
62712;BME280;48772;55.586;37.730;2024-03-22T09:43:21;99254.66;;;16.73;31.34
62712;BME280;48772;55.586;37.730;2024-03-22T09:45:48;99238.06;;;16.46;32.22
62712;BME280;48772;55.586;37.730;2024-03-22T09:48:18;99269.28;;;16.87;32.46
62712;BME280;48772;55.586;37.730;2024-03-22T09:50:46;99252.94;;;17.43;31.13
62712;BME280;48772;55.586;37.730;2024-03-22T09:53:20;99258.72;;;17.24;30.70
62712;BME280;48772;55.586;37.730;2024-03-22T09:55:48;99251.66;;;17.23;30.36
62712;BME280;48772;55.586;37.730;2024-03-22T09:58:14;99217.81;;;17.59;29.78
62712;BME280;48772;55.586;37.730;2024-03-22T10:00:43;99252.66;;;17.91;29.90
62712;BME280;48772;55.586;37.730;2024-03-22T10:03:10;99234.16;;;17.80;30.16
62712;BME280;48772;55.586;37.730;2024-03-22T10:05:36;99241.44;;;18.47;29.32
62712;BME280;48772;55.586;37.730;2024-03-22T10:08:03;99235.91;;;18.40;28.94
62712;BME280;48772;55.586;37.730;2024-03-22T10:10:32;99230.28;;;18.27;29.01
62712;BME280;48772;55.586;37.730;2024-03-22T10:13:00;99218.53;;;18.43;29.06
62712;BME280;48772;55.586;37.730;2024-03-22T10:15:26;99235.53;;;18.66;28.35
62712;BME280;48772;55.586;37.730;2024-03-22T10:17:52;99220.28;;;18.13;28.80
62712;BME280;48772;55.586;37.730;2024-03-22T10:20:22;99227.75;;;18.26;28.90
62712;BME280;48772;55.586;37.730;2024-03-22T10:22:58;99229.53;;;18.56;28.36
62712;BME280;48772;55.586;37.730;2024-03-22T10:25:28;99222.09;;;18.58;28.42
62712;BME280;48772;55.586;37.730;2024-03-22T10:27:56;99208.78;;;18.34;29.14
62712;BME280;48772;55.586;37.730;2024-03-22T10:30:23;99181.69;;;18.27;28.98
62712;BME280;48772;55.586;37.730;2024-03-22T10:32:51;99201.78;;;18.76;28.77
62712;BME280;48772;55.586;37.730;2024-03-22T10:35:18;99194.72;;;18.90;28.23
62712;BME280;48772;55.586;37.730;2024-03-22T10:37:44;99185.59;;;18.62;28.61
62712;BME280;48772;55.586;37.730;2024-03-22T10:40:11;99188.00;;;18.20;28.12
62712;BME280;48772;55.586;37.730;2024-03-22T10:42:38;99186.91;;;18.29;28.17
62712;BME280;48772;55.586;37.730;2024-03-22T10:45:06;99181.50;;;18.29;28.65
62712;BME280;48772;55.586;37.730;2024-03-22T10:47:34;99156.72;;;18.48;28.61
62712;BME280;48772;55.586;37.730;2024-03-22T10:50:05;99176.19;;;18.58;29.41
62712;BME280;48772;55.586;37.730;2024-03-22T10:52:36;99169.03;;;18.94;28.93
62712;BME280;48772;55.586;37.730;2024-03-22T10:55:05;99175.34;;;18.86;29.04
62712;BME280;48772;55.586;37.730;2024-03-22T10:57:34;99181.00;;;18.48;28.80
62712;BME280;48772;55.586;37.730;2024-03-22T11:00:08;99162.03;;;18.19;29.13
62712;BME280;48772;55.586;37.730;2024-03-22T11:02:36;99169.88;;;18.28;29.27
62712;BME280;48772;55.586;37.730;2024-03-22T11:05:04;99144.97;;;18.18;28.94
62712;BME280;48772;55.586;37.730;2024-03-22T11:07:31;99169.31;;;18.33;28.48
62712;BME280;48772;55.586;37.730;2024-03-22T11:10:00;99156.44;;;18.43;28.29
62712;BME280;48772;55.586;37.730;2024-03-22T11:12:27;99140.50;;;18.48;28.74
62712;BME280;48772;55.586;37.730;2024-03-22T11:14:54;99137.91;;;18.03;29.14
62712;BME280;48772;55.586;37.730;2024-03-22T11:17:20;99159.91;;;17.47;29.62
62712;BME280;48772;55.586;37.730;2024-03-22T11:19:53;99133.94;;;17.15;30.53
62712;BME280;48772;55.586;37.730;2024-03-22T11:22:20;99135.84;;;17.37;29.91
62712;BME280;48772;55.586;37.730;2024-03-22T11:24:46;99128.50;;;17.76;29.45
62712;BME280;48772;55.586;37.730;2024-03-22T11:27:12;99131.94;;;18.59;29.50
62712;BME280;48772;55.586;37.730;2024-03-22T11:29:39;99132.88;;;18.37;29.32
62712;BME280;48772;55.586;37.730;2024-03-22T11:32:07;99127.53;;;17.92;29.87
62712;BME280;48772;55.586;37.730;2024-03-22T11:34:39;99074.66;;;17.83;29.87
62712;BME280;48772;55.586;37.730;2024-03-22T11:37:07;99108.94;;;17.60;29.86
62712;BME280;48772;55.586;37.730;2024-03-22T11:39:37;99112.16;;;17.02;30.91
62712;BME280;48772;55.586;37.730;2024-03-22T11:42:05;99113.63;;;16.74;30.90
62712;BME280;48772;55.586;37.730;2024-03-22T11:44:37;99101.59;;;16.93;31.16
62712;BME280;48772;55.586;37.730;2024-03-22T11:47:08;99080.56;;;17.19;30.75
62712;BME280;48772;55.586;37.730;2024-03-22T11:49:34;99102.84;;;17.35;30.80
62712;BME280;48772;55.586;37.730;2024-03-22T11:52:01;99082.47;;;17.78;30.40
62712;BME280;48772;55.586;37.730;2024-03-22T11:54:26;99105.63;;;17.19;30.78
62712;BME280;48772;55.586;37.730;2024-03-22T11:56:55;99086.41;;;16.61;31.75
62712;BME280;48772;55.586;37.730;2024-03-22T11:59:22;99089.34;;;16.43;31.84
62712;BME280;48772;55.586;37.730;2024-03-22T12:01:48;99070.66;;;16.81;31.74
62712;BME280;48772;55.586;37.730;2024-03-22T12:04:14;99074.84;;;17.14;31.57
62712;BME280;48772;55.586;37.730;2024-03-22T12:06:46;99057.31;;;16.95;31.70
62712;BME280;48772;55.586;37.730;2024-03-22T12:09:12;99063.75;;;16.39;31.98
62712;BME280;48772;55.586;37.730;2024-03-22T12:11:40;99047.41;;;16.57;32.07
62712;BME280;48772;55.586;37.730;2024-03-22T12:14:06;99043.44;;;15.82;32.59
62712;BME280;48772;55.586;37.730;2024-03-22T12:16:32;99050.50;;;15.75;32.80
62712;BME280;48772;55.586;37.730;2024-03-22T12:18:58;99050.06;;;16.65;31.94
62712;BME280;48772;55.586;37.730;2024-03-22T12:21:24;99024.75;;;16.43;32.45
62712;BME280;48772;55.586;37.730;2024-03-22T12:23:50;99017.16;;;16.39;32.41
62712;BME280;48772;55.586;37.730;2024-03-22T12:26:16;99001.00;;;16.39;32.24
62712;BME280;48772;55.586;37.730;2024-03-22T12:28:43;99016.84;;;16.42;32.16
62712;BME280;48772;55.586;37.730;2024-03-22T12:31:09;99004.94;;;16.98;31.45
62712;BME280;48772;55.586;37.730;2024-03-22T12:33:38;98938.19;;;15.85;32.35
62712;BME280;48772;55.586;37.730;2024-03-22T12:36:05;99007.56;;;16.53;32.42
62712;BME280;48772;55.586;37.730;2024-03-22T12:38:30;99002.38;;;15.88;33.00
62712;BME280;48772;55.586;37.730;2024-03-22T12:40:57;98998.91;;;15.64;33.53
62712;BME280;48772;55.586;37.730;2024-03-22T12:43:23;98994.03;;;15.75;32.98
62712;BME280;48772;55.586;37.730;2024-03-22T12:45:49;98964.66;;;15.50;33.85
62712;BME280;48772;55.586;37.730;2024-03-22T12:48:15;98960.66;;;15.06;33.76